Time;durP1;ratioP1;P1;durP2;ratioP2;P2;SDS_P1;SDS_P2;PMS_P1;PMS_P2;Temp;Humidity;BMP_temperature;BMP_pressure;BME280_temperature;BME280_humidity;BME280_pressure;Samples;Min_cycle;Max_cycle;Signal;HPM_P1;HPM_P2
2023/09/27 00:01:24;;;;;;;;;;;23.90;59.50;;;;;;5053603;28;19925;-62
2023/09/27 00:03:51;;;;;;;;;;;23.90;59.40;;;;;;5053107;28;19924;-62
2023/09/27 00:06:18;;;;;;;;;;;23.90;59.40;;;;;;5052723;28;19928;-62
2023/09/27 00:08:45;;;;;;;;;;;23.90;59.40;;;;;;5068650;28;19932;-63
2023/09/27 00:11:12;;;;;;;;;;;23.90;59.40;;;;;;5053107;28;19928;-62
2023/09/27 00:13:40;;;;;;;;;;;23.90;59.40;;;;;;5053443;28;19947;-62
2023/09/27 00:16:07;;;;;;;;;;;23.90;59.40;;;;;;5053495;28;20023;-62
2023/09/27 00:18:34;;;;;;;;;;;23.80;59.30;;;;;;5053356;28;19925;-62
2023/09/27 00:21:01;;;;;;;;;;;23.90;59.30;;;;;;5053361;28;19971;-62
2023/09/27 00:23:27;;;;;;;;;;;23.90;59.40;;;;;;5052550;28;20285;-62
2023/09/27 00:25:55;;;;;;;;;;;23.90;59.30;;;;;;5053060;28;19924;-62
2023/09/27 00:28:22;;;;;;;;;;;23.90;59.30;;;;;;5053021;28;19932;-62
2023/09/27 00:30:50;;;;;;;;;;;23.90;59.20;;;;;;5053373;28;19925;-62
2023/09/27 00:33:18;;;;;;;;;;;23.90;59.20;;;;;;5052844;28;19951;-62
2023/09/27 00:35:49;;;;;;;;;;;23.90;59.20;;;;;;5053057;28;20019;-62
2023/09/27 00:38:16;;;;;;;;;;;23.90;59.10;;;;;;5052719;28;20465;-62
2023/09/27 00:40:44;;;;;;;;;;;23.90;59.10;;;;;;5053035;28;19929;-62
2023/09/27 00:43:23;;;;;;;;;;;23.90;59.10;;;;;;5053150;28;19931;-62
2023/09/27 00:45:52;;;;;;;;;;;23.90;59.00;;;;;;5053246;28;20328;-62
2023/09/27 00:48:19;;;;;;;;;;;23.90;59.00;;;;;;5068492;28;19998;-62
2023/09/27 00:50:46;;;;;;;;;;;23.90;59.00;;;;;;5053160;28;20028;-62
2023/09/27 00:53:13;;;;;;;;;;;23.90;59.00;;;;;;5052759;28;19928;-62
2023/09/27 00:55:40;;;;;;;;;;;23.90;59.00;;;;;;5052680;28;20262;-62
2023/09/27 00:58:07;;;;;;;;;;;23.90;59.00;;;;;;5052414;28;20350;-62
2023/09/27 01:00:34;;;;;;;;;;;23.90;59.00;;;;;;5052835;28;19925;-62
2023/09/27 01:03:02;;;;;;;;;;;23.90;59.00;;;;;;5052792;28;19929;-62
2023/09/27 01:05:29;;;;;;;;;;;23.90;59.10;;;;;;5052441;28;19924;-62
2023/09/27 01:07:56;;;;;;;;;;;23.90;59.10;;;;;;5052914;28;19925;-62
2023/09/27 01:10:23;;;;;;;;;;;23.80;59.00;;;;;;5053155;28;19925;-62
2023/09/27 01:12:50;;;;;;;;;;;23.80;59.00;;;;;;5052291;28;19925;-62
2023/09/27 01:15:17;;;;;;;;;;;23.80;59.00;;;;;;5051977;28;19931;-62
2023/09/27 01:17:55;;;;;;;;;;;23.80;59.00;;;;;;5052857;28;19924;-62
2023/09/27 01:20:22;;;;;;;;;;;23.80;59.00;;;;;;5055027;28;19979;-62
2023/09/27 01:23:05;;;;;;;;;;;23.80;59.00;;;;;;5056074;28;20385;-62
2023/09/27 01:25:34;;;;;;;;;;;23.80;59.00;;;;;;5056419;28;20071;-62
2023/09/27 01:28:02;;;;;;;;;;;23.80;59.00;;;;;;5056321;28;19929;-62
2023/09/27 01:30:33;;;;;;;;;;;23.80;59.10;;;;;;5055856;28;19971;-62
2023/09/27 01:33:07;;;;;;;;;;;23.80;59.00;;;;;;5056021;28;19924;-62
2023/09/27 01:35:35;;;;;;;;;;;23.80;59.00;;;;;;5055485;28;20019;-62
2023/09/27 01:38:03;;;;;;;;;;;23.80;59.00;;;;;;5055927;28;19928;-63
2023/09/27 01:40:30;;;;;;;;;;;23.80;59.00;;;;;;5055883;28;19931;-62
2023/09/27 01:42:58;;;;;;;;;;;23.80;59.00;;;;;;5055977;28;20338;-62
2023/09/27 01:45:25;;;;;;;;;;;23.80;59.00;;;;;;5055966;28;19979;-62
2023/09/27 01:47:52;;;;;;;;;;;23.80;59.00;;;;;;5055124;28;20012;-62
2023/09/27 01:50:19;;;;;;;;;;;23.80;58.90;;;;;;5070913;28;19978;-62
2023/09/27 01:52:47;;;;;;;;;;;23.80;58.90;;;;;;5055594;28;19924;-62
2023/09/27 01:55:14;;;;;;;;;;;23.80;58.80;;;;;;5070686;28;19990;-62
2023/09/27 01:57:41;;;;;;;;;;;23.80;58.80;;;;;;5055498;28;19971;-62
2023/09/27 02:00:14;;;;;;;;;;;23.80;58.80;;;;;;5055515;28;19965;-62
2023/09/27 02:02:41;;;;;;;;;;;23.80;58.70;;;;;;5055275;28;19928;-62
2023/09/27 02:05:09;;;;;;;;;;;23.80;58.80;;;;;;5055607;28;19925;-62
2023/09/27 02:07:38;;;;;;;;;;;23.80;58.70;;;;;;5055347;28;20007;-62
2023/09/27 02:10:05;;;;;;;;;;;23.80;58.70;;;;;;5070907;28;19925;-62
2023/09/27 02:12:33;;;;;;;;;;;23.80;58.70;;;;;;5054788;28;19925;-62
2023/09/27 02:15:00;;;;;;;;;;;23.80;58.70;;;;;;5054975;28;19924;-62
2023/09/27 02:17:27;;;;;;;;;;;23.80;58.80;;;;;;5055536;28;19951;-62
2023/09/27 02:19:54;;;;;;;;;;;23.80;59.30;;;;;;5054720;28;19933;-62
2023/09/27 02:22:22;;;;;;;;;;;23.80;58.70;;;;;;5055080;28;19947;-62
2023/09/27 02:24:50;;;;;;;;;;;23.80;58.80;;;;;;5054527;28;19932;-62
2023/09/27 02:27:17;;;;;;;;;;;23.80;58.80;;;;;;5055087;28;20008;-62
2023/09/27 02:29:45;;;;;;;;;;;23.80;58.80;;;;;;5070701;28;19925;-62
2023/09/27 02:32:13;;;;;;;;;;;23.80;58.80;;;;;;5053879;28;20262;-62
2023/09/27 02:34:42;;;;;;;;;;;23.80;58.80;;;;;;5054343;28;19975;-62
2023/09/27 02:37:09;;;;;;;;;;;23.70;58.70;;;;;;5053369;28;19924;-62
2023/09/27 02:39:36;;;;;;;;;;;23.70;58.70;;;;;;5054946;28;19924;-62
2023/09/27 02:42:03;;;;;;;;;;;23.70;58.80;;;;;;5054487;28;19994;-62
2023/09/27 02:44:31;;;;;;;;;;;23.70;58.80;;;;;;5054676;28;19928;-62
2023/09/27 02:46:58;;;;;;;;;;;23.70;58.80;;;;;;5054775;28;19925;-62
2023/09/27 02:49:25;;;;;;;;;;;23.70;58.80;;;;;;5054746;28;20007;-62
2023/09/27 02:51:53;;;;;;;;;;;23.70;58.80;;;;;;5069933;28;19925;-62
2023/09/27 02:54:20;;;;;;;;;;;23.80;58.80;;;;;;5054394;28;20431;-62
2023/09/27 02:56:47;;;;;;;;;;;23.70;58.70;;;;;;5054670;28;19994;-62
2023/09/27 02:59:14;;;;;;;;;;;23.70;58.80;;;;;;5054762;28;19974;-62
2023/09/27 03:01:41;;;;;;;;;;;23.70;58.80;;;;;;5053903;28;19971;-62
2023/09/27 03:04:10;;;;;;;;;;;23.70;58.80;;;;;;5054186;28;20369;-62
2023/09/27 03:06:37;;;;;;;;;;;23.70;58.70;;;;;;5054194;28;19924;-62
2023/09/27 03:09:05;;;;;;;;;;;23.70;58.70;;;;;;5053952;28;20324;-62
2023/09/27 03:11:35;;;;;;;;;;;23.70;58.70;;;;;;5054115;28;19951;-62
2023/09/27 03:14:02;;;;;;;;;;;23.70;58.60;;;;;;5053780;28;19925;-62
2023/09/27 03:16:29;;;;;;;;;;;23.70;58.60;;;;;;5053938;28;19929;-62
2023/09/27 03:18:59;;;;;;;;;;;23.70;58.50;;;;;;5053858;28;19925;-62
2023/09/27 03:21:26;;;;;;;;;;;23.80;58.50;;;;;;5052587;28;20357;-62
2023/09/27 03:23:54;;;;;;;;;;;23.70;58.50;;;;;;5053159;28;19951;-62
2023/09/27 03:26:22;;;;;;;;;;;23.80;58.50;;;;;;5053318;28;20410;-62
2023/09/27 03:28:53;;;;;;;;;;;23.70;58.40;;;;;;5054166;28;20292;-62
2023/09/27 03:31:21;;;;;;;;;;;23.80;58.50;;;;;;5053316;28;19929;-62
2023/09/27 03:33:48;;;;;;;;;;;23.70;58.40;;;;;;5052800;28;19925;-62
2023/09/27 03:36:15;;;;;;;;;;;23.70;58.50;;;;;;5054689;28;19947;-62
2023/09/27 03:38:42;;;;;;;;;;;23.70;58.50;;;;;;5064516;28;20383;-62
2023/09/27 03:41:09;;;;;;;;;;;23.70;58.50;;;;;;5053243;28;20320;-62
2023/09/27 03:43:37;;;;;;;;;;;23.70;58.50;;;;;;5045347;28;20047;-62
2023/09/27 03:46:04;;;;;;;;;;;23.70;59.10;;;;;;5043460;28;20242;-62
2023/09/27 03:48:31;;;;;;;;;;;23.70;58.60;;;;;;5043514;28;19979;-62
2023/09/27 03:50:59;;;;;;;;;;;23.70;58.60;;;;;;5043961;28;20292;-62
2023/09/27 03:53:26;;;;;;;;;;;23.70;58.60;;;;;;5046014;28;19925;-62
2023/09/27 03:55:53;;;;;;;;;;;23.70;58.60;;;;;;5033867;28;19932;-62
2023/09/27 03:58:20;;;;;;;;;;;23.70;58.60;;;;;;5033680;28;19934;-63
2023/09/27 04:00:47;;;;;;;;;;;23.70;58.60;;;;;;5051581;28;19925;-63
2023/09/27 04:03:15;;;;;;;;;;;23.70;58.60;;;;;;5039936;28;20389;-63
2023/09/27 04:05:43;;;;;;;;;;;23.70;58.60;;;;;;5052661;28;19931;-63
2023/09/27 04:08:11;;;;;;;;;;;23.70;58.60;;;;;;5069192;28;19931;-63
2023/09/27 04:10:38;;;;;;;;;;;23.70;58.60;;;;;;5073255;28;20299;-63
2023/09/27 04:13:05;;;;;;;;;;;23.70;58.50;;;;;;5073201;28;19928;-63
2023/09/27 04:15:35;;;;;;;;;;;23.70;58.50;;;;;;5073263;28;19928;-63
2023/09/27 04:18:02;;;;;;;;;;;23.70;58.50;;;;;;5073369;28;19924;-63
2023/09/27 04:20:30;;;;;;;;;;;23.70;58.50;;;;;;5057388;28;19964;-63
2023/09/27 04:22:59;;;;;;;;;;;23.70;58.50;;;;;;5046821;28;20412;-63
2023/09/27 04:25:27;;;;;;;;;;;23.70;58.50;;;;;;5052184;28;19924;-63
2023/09/27 04:27:54;;;;;;;;;;;23.70;58.50;;;;;;5053029;28;20373;-63
2023/09/27 04:30:22;;;;;;;;;;;23.70;58.40;;;;;;5052149;28;19929;-63
2023/09/27 04:32:53;;;;;;;;;;;23.70;58.40;;;;;;5053118;28;19931;-63
2023/09/27 04:35:21;;;;;;;;;;;23.70;58.30;;;;;;5052784;28;20290;-63
2023/09/27 04:37:48;;;;;;;;;;;23.70;58.40;;;;;;5052956;28;19932;-63
2023/09/27 04:40:16;;;;;;;;;;;23.60;58.90;;;;;;5059276;28;20332;-63
2023/09/27 04:42:44;;;;;;;;;;;23.50;58.40;;;;;;5052993;28;19925;-63
2023/09/27 04:45:12;;;;;;;;;;;23.40;59.20;;;;;;5053347;28;19925;-63
2023/09/27 04:47:40;;;;;;;;;;;23.20;58.30;;;;;;5052813;28;19924;-63
2023/09/27 04:50:09;;;;;;;;;;;22.90;56.50;;;;;;5066923;28;19929;-63
2023/09/27 04:52:37;;;;;;;;;;;22.60;55.30;;;;;;5033765;28;19925;-63
2023/09/27 04:55:05;;;;;;;;;;;22.40;54.00;;;;;;5033852;28;19925;-63
2023/09/27 04:57:32;;;;;;;;;;;22.10;53.00;;;;;;5037037;28;19948;-63
2023/09/27 04:59:59;;;;;;;;;;;21.80;52.30;;;;;;5036888;28;20267;-63
2023/09/27 05:02:27;;;;;;;;;;;21.50;53.40;;;;;;5038458;28;19925;-63
2023/09/27 05:04:54;;;;;;;;;;;21.20;53.50;;;;;;5045013;28;20008;-63
2023/09/27 05:07:21;;;;;;;;;;;20.90;52.80;;;;;;5048211;28;19929;-63
2023/09/27 05:09:48;;;;;;;;;;;20.60;54.70;;;;;;5045303;28;20393;-62
2023/09/27 05:12:15;;;;;;;;;;;20.40;54.70;;;;;;5050431;28;19953;-62
2023/09/27 05:14:42;;;;;;;;;;;20.20;53.60;;;;;;5048402;28;19960;-65
2023/09/27 05:17:09;;;;;;;;;;;20.00;55.60;;;;;;5045429;28;19987;-62
2023/09/27 05:19:36;;;;;;;;;;;19.80;53.30;;;;;;5052877;28;19924;-63
2023/09/27 05:22:03;;;;;;;;;;;19.60;53.10;;;;;;5051451;28;19933;-62
2023/09/27 05:24:38;;;;;;;;;;;19.50;53.00;;;;;;5049598;28;20373;-62
2023/09/27 05:27:06;;;;;;;;;;;19.30;53.40;;;;;;5047411;28;19933;-61
2023/09/27 05:29:33;;;;;;;;;;;19.20;53.80;;;;;;5048940;28;19939;-63
2023/09/27 05:32:01;;;;;;;;;;;19.10;53.40;;;;;;5047752;28;19928;-62
2023/09/27 05:34:30;;;;;;;;;;;19.00;53.90;;;;;;5053580;28;20444;-61
2023/09/27 05:36:57;;;;;;;;;;;19.00;55.10;;;;;;5043836;28;19974;-62
2023/09/27 05:39:25;;;;;;;;;;;18.90;53.90;;;;;;5041762;28;19979;-61
2023/09/27 05:41:52;;;;;;;;;;;18.80;55.30;;;;;;5042890;28;20332;-61
2023/09/27 05:44:19;;;;;;;;;;;18.80;55.10;;;;;;5042435;28;19943;-62
2023/09/27 05:46:47;;;;;;;;;;;18.70;54.50;;;;;;5044900;28;19924;-62
2023/09/27 05:49:15;;;;;;;;;;;18.70;54.00;;;;;;5045169;28;20059;-62
2023/09/27 05:51:43;;;;;;;;;;;18.60;56.10;;;;;;5039664;28;19932;-63
2023/09/27 05:54:10;;;;;;;;;;;18.60;55.30;;;;;;5043064;28;19947;-62
2023/09/27 05:56:37;;;;;;;;;;;18.60;55.20;;;;;;5037950;28;20015;-62
2023/09/27 05:59:08;;;;;;;;;;;18.50;53.50;;;;;;5040702;28;19978;-63
2023/09/27 06:01:36;;;;;;;;;;;18.50;54.00;;;;;;5045153;28;19964;-62
2023/09/27 06:04:03;;;;;;;;;;;18.50;54.20;;;;;;5043229;28;19932;-63
2023/09/27 06:06:30;;;;;;;;;;;18.40;53.80;;;;;;5042163;28;19933;-62
2023/09/27 06:08:58;;;;;;;;;;;18.40;54.20;;;;;;5041618;28;19983;-62
2023/09/27 06:11:26;;;;;;;;;;;18.30;54.50;;;;;;5047536;28;19943;-61
2023/09/27 06:13:53;;;;;;;;;;;18.30;53.60;;;;;;5049058;28;19932;-62
2023/09/27 06:16:21;;;;;;;;;;;18.30;53.90;;;;;;5042349;28;19933;-63
2023/09/27 06:18:49;;;;;;;;;;;18.20;53.90;;;;;;5046756;28;19924;-62
2023/09/27 06:21:16;;;;;;;;;;;18.20;55.00;;;;;;5042809;28;20448;-64
2023/09/27 06:23:43;;;;;;;;;;;18.20;53.80;;;;;;5041437;28;20806;-61
2023/09/27 06:26:12;;;;;;;;;;;18.20;53.70;;;;;;5042150;28;20894;-61
2023/09/27 06:28:39;;;;;;;;;;;18.20;53.90;;;;;;5042105;28;20392;-64
2023/09/27 06:31:07;;;;;;;;;;;18.20;53.10;;;;;;5040126;28;19928;-67
2023/09/27 06:33:38;;;;;;;;;;;18.10;52.90;;;;;;5044592;28;20027;-71
2023/09/27 06:36:06;;;;;;;;;;;18.10;54.20;;;;;;5042890;28;19929;-69
2023/09/27 06:38:33;;;;;;;;;;;18.00;60.90;;;;;;5040082;28;19928;-68
2023/09/27 06:41:01;;;;;;;;;;;18.30;69.80;;;;;;5046693;28;19928;-68
2023/09/27 06:43:30;;;;;;;;;;;18.80;69.50;;;;;;5045146;28;20368;-68
2023/09/27 06:46:01;;;;;;;;;;;19.30;68.30;;;;;;5040879;28;19933;-70
2023/09/27 06:48:28;;;;;;;;;;;19.80;67.10;;;;;;5047325;28;19943;-69
2023/09/27 06:50:56;;;;;;;;;;;20.30;66.00;;;;;;5048964;28;19937;-69
2023/09/27 06:53:23;;;;;;;;;;;20.60;64.90;;;;;;5042836;28;20296;-69
2023/09/27 06:55:56;;;;;;;;;;;20.90;63.90;;;;;;5044797;28;19944;-68
2023/09/27 06:58:24;;;;;;;;;;;21.20;63.10;;;;;;5044589;28;19928;-68
2023/09/27 07:00:52;;;;;;;;;;;21.50;62.50;;;;;;5039053;28;19967;-69
2023/09/27 07:03:24;;;;;;;;;;;21.70;61.90;;;;;;5043796;28;20019;-70
2023/09/27 07:05:52;;;;;;;;;;;21.90;61.50;;;;;;5044597;28;20408;-70
2023/09/27 07:08:20;;;;;;;;;;;22.10;60.90;;;;;;5041438;28;20385;-68
2023/09/27 07:10:47;;;;;;;;;;;22.20;60.50;;;;;;5044185;28;19933;-67
2023/09/27 07:13:15;;;;;;;;;;;22.40;60.30;;;;;;5042776;28;20008;-70
2023/09/27 07:15:45;;;;;;;;;;;22.50;60.00;;;;;;5045162;28;19935;-71
2023/09/27 07:18:13;;;;;;;;;;;22.60;59.80;;;;;;5043010;28;19928;-71
2023/09/27 07:20:41;;;;;;;;;;;22.70;59.60;;;;;;5043984;28;20369;-71
2023/09/27 07:23:14;;;;;;;;;;;22.80;59.30;;;;;;5039951;28;19939;-72
2023/09/27 07:25:42;;;;;;;;;;;22.90;59.00;;;;;;5038297;28;20028;-71
2023/09/27 07:28:10;;;;;;;;;;;23.00;58.80;;;;;;5044086;28;19925;-71
2023/09/27 07:30:37;;;;;;;;;;;23.10;58.60;;;;;;5047100;28;19924;-71
2023/09/27 07:33:11;;;;;;;;;;;23.20;58.50;;;;;;5037003;28;20439;-72
2023/09/27 07:35:43;;;;;;;;;;;23.30;58.30;;;;;;5040747;28;20415;-72
2023/09/27 07:38:11;;;;;;;;;;;23.40;58.20;;;;;;5040230;28;19940;-70
2023/09/27 07:40:38;;;;;;;;;;;23.40;58.00;;;;;;5044144;28;19928;-70
2023/09/27 07:43:05;;;;;;;;;;;23.50;57.90;;;;;;5042128;28;19939;-72
2023/09/27 07:45:35;;;;;;;;;;;23.60;57.80;;;;;;5044199;28;19967;-73
2023/09/27 07:48:03;;;;;;;;;;;23.70;57.70;;;;;;5052702;28;19925;-72
2023/09/27 07:50:34;;;;;;;;;;;23.70;57.60;;;;;;5044286;28;20028;-72
2023/09/27 07:53:06;;;;;;;;;;;23.80;57.50;;;;;;5038826;28;19948;-69
2023/09/27 07:55:36;;;;;;;;;;;23.80;57.30;;;;;;5040699;28;19970;-70
2023/09/27 07:58:03;;;;;;;;;;;23.90;57.20;;;;;;5060402;28;20816;-70
2023/09/27 08:00:33;;;;;;;;;;;23.90;62.20;;;;;;5033026;28;20031;-69
2023/09/27 08:03:00;;;;;;;;;;;23.80;65.20;;;;;;5040445;28;19935;-72
2023/09/27 08:05:28;;;;;;;;;;;23.60;46.70;;;;;;5060744;28;20412;-70
2023/09/27 08:07:55;;;;;;;;;;;23.10;46.50;;;;;;5041934;28;20376;-69
2023/09/27 08:10:22;;;;;;;;;;;22.70;46.30;;;;;;5043596;28;19939;-69
2023/09/27 08:12:50;;;;;;;;;;;22.30;47.90;;;;;;5044497;28;22019;-68
2023/09/27 08:15:17;;;;;;;;;;;21.90;48.50;;;;;;5045734;28;20028;-68
2023/09/27 08:17:47;;;;;;;;;;;21.50;48.40;;;;;;5046500;28;19928;-68
2023/09/27 08:20:15;;;;;;;;;;;21.20;49.50;;;;;;5043405;28;20309;-69
2023/09/27 08:22:42;;;;;;;;;;;20.90;49.50;;;;;;5047621;28;19972;-69
2023/09/27 08:25:14;;;;;;;;;;;20.70;49.90;;;;;;5042866;28;19932;-68
2023/09/27 08:27:43;;;;;;;;;;;20.40;52.00;;;;;;5047055;28;19928;-68
2023/09/27 08:30:11;;;;;;;;;;;20.20;50.80;;;;;;5027014;28;19932;-69
2023/09/27 08:32:40;;;;;;;;;;;20.00;53.00;;;;;;5048133;28;19968;-69
2023/09/27 08:35:09;;;;;;;;;;;19.90;53.10;;;;;;5045682;28;20007;-70
2023/09/27 08:37:36;;;;;;;;;;;19.80;53.80;;;;;;5042312;28;19935;-69
2023/09/27 08:40:05;;;;;;;;;;;19.60;54.20;;;;;;5046259;28;19925;-68
2023/09/27 08:42:33;;;;;;;;;;;19.50;55.30;;;;;;5045433;28;19929;-68
2023/09/27 08:45:00;;;;;;;;;;;19.40;55.90;;;;;;5047919;28;20027;-67
2023/09/27 08:47:28;;;;;;;;;;;19.30;56.60;;;;;;5044818;28;19925;-68
2023/09/27 08:49:58;;;;;;;;;;;19.30;56.80;;;;;;5044218;28;20826;-68
2023/09/27 08:52:26;;;;;;;;;;;19.20;57.40;;;;;;5046036;28;19985;-68
2023/09/27 08:54:53;;;;;;;;;;;19.10;58.10;;;;;;5043689;28;20082;-68
2023/09/27 08:57:21;;;;;;;;;;;19.00;57.80;;;;;;5047969;28;19964;-68
2023/09/27 08:59:48;;;;;;;;;;;19.00;58.60;;;;;;5044968;28;20388;-68
2023/09/27 09:02:15;;;;;;;;;;;18.90;58.60;;;;;;5046908;28;20435;-68
2023/09/27 09:04:42;;;;;;;;;;;18.90;58.90;;;;;;5046206;28;19952;-69
2023/09/27 09:07:09;;;;;;;;;;;18.80;59.10;;;;;;5046217;28;20575;-68
2023/09/27 09:09:39;;;;;;;;;;;18.80;59.20;;;;;;5044221;28;19943;-67
2023/09/27 09:12:09;;;;;;;;;;;18.70;59.20;;;;;;5043799;28;21431;-67
2023/09/27 09:14:38;;;;;;;;;;;18.60;60.20;;;;;;5045101;28;20439;-70
2023/09/27 09:17:07;;;;;;;;;;;18.60;60.00;;;;;;5063429;28;19933;-70
2023/09/27 09:19:38;;;;;;;;;;;18.60;60.60;;;;;;5042469;28;19933;-69
2023/09/27 09:22:12;;;;;;;;;;;18.50;60.90;;;;;;5043498;28;20488;-69
2023/09/27 09:24:41;;;;;;;;;;;18.50;60.30;;;;;;5047479;28;19933;-68
2023/09/27 09:27:10;;;;;;;;;;;18.60;60.90;;;;;;5047192;28;20447;-70
2023/09/27 09:29:46;;;;;;;;;;;18.60;60.70;;;;;;5044775;28;19933;-70
2023/09/27 09:32:20;;;;;;;;;;;18.60;60.70;;;;;;5044789;28;19932;-70
2023/09/27 09:34:51;;;;;;;;;;;18.60;60.40;;;;;;5042552;28;19933;-69
2023/09/27 09:37:22;;;;;;;;;;;18.60;59.90;;;;;;5043075;28;19998;-68
2023/09/27 09:39:50;;;;;;;;;;;18.60;60.60;;;;;;5043302;28;19929;-70
2023/09/27 09:42:33;;;;;;;;;;;18.60;61.20;;;;;;5045051;28;20626;-69
2023/09/27 09:45:00;;;;;;;;;;;18.60;60.60;;;;;;5048266;28;19932;-68
2023/09/27 09:47:28;;;;;;;;;;;18.60;59.80;;;;;;5041996;28;19925;-68
2023/09/27 09:49:56;;;;;;;;;;;18.70;60.10;;;;;;5043315;28;19959;-68
2023/09/27 09:52:27;;;;;;;;;;;18.70;60.70;;;;;;5041511;28;19978;-70
2023/09/27 09:54:57;;;;;;;;;;;18.70;60.90;;;;;;5046589;28;20334;-68
2023/09/27 09:57:43;;;;;;;;;;;18.70;60.50;;;;;;5042350;28;20263;-69
2023/09/27 10:00:25;;;;;;;;;;;18.70;60.30;;;;;;5053065;28;19994;-69
2023/09/27 10:03:01;;;;;;;;;;;18.80;59.80;;;;;;5043750;28;19925;-70
2023/09/27 10:05:34;;;;;;;;;;;18.80;60.10;;;;;;5041547;28;19929;-70
2023/09/27 10:08:01;;;;;;;;;;;18.80;60.40;;;;;;5043353;28;19929;-68
2023/09/27 10:10:28;;;;;;;;;;;18.80;60.30;;;;;;5043110;28;19932;-68
2023/09/27 10:12:56;;;;;;;;;;;18.80;60.00;;;;;;5045825;28;19925;-72
2023/09/27 10:15:30;;;;;;;;;;;18.80;60.50;;;;;;5043430;28;20383;-73
2023/09/27 10:18:17;;;;;;;;;;;18.80;59.00;;;;;;5043747;28;19940;-73
2023/09/27 10:21:09;;;;;;;;;;;18.80;58.10;;;;;;5045269;28;19933;-73
2023/09/27 10:23:57;;;;;;;;;;;18.80;58.90;;;;;;5041923;28;19932;-73
2023/09/27 10:26:32;;;;;;;;;;;18.80;59.70;;;;;;5044216;28;19929;-73
2023/09/27 10:29:10;;;;;;;;;;;18.80;59.90;;;;;;5044293;28;19952;-73
2023/09/27 10:31:57;;;;;;;;;;;18.80;60.00;;;;;;5042967;28;19944;-73
2023/09/27 10:34:44;;;;;;;;;;;18.90;59.30;;;;;;5045479;28;20347;-75
2023/09/27 10:37:11;;;;;;;;;;;18.80;58.70;;;;;;5041968;28;20369;-73
2023/09/27 10:40:06;;;;;;;;;;;18.80;59.50;;;;;;5044284;28;19929;-73
2023/09/27 10:42:43;;;;;;;;;;;18.80;58.60;;;;;;5045607;28;19933;-72
2023/09/27 10:45:10;;;;;;;;;;;18.80;58.90;;;;;;5045484;28;20450;-72
2023/09/27 10:47:37;;;;;;;;;;;18.80;59.60;;;;;;5048560;28;19929;-71
2023/09/27 10:50:04;;;;;;;;;;;18.80;60.00;;;;;;5044376;28;19928;-70
2023/09/27 10:52:32;;;;;;;;;;;18.80;59.60;;;;;;5044212;28;19981;-72
2023/09/27 10:55:12;;;;;;;;;;;18.80;59.80;;;;;;5040130;28;19933;-70
2023/09/27 10:57:41;;;;;;;;;;;18.70;59.90;;;;;;5041218;28;19929;-71
2023/09/27 11:00:11;;;;;;;;;;;18.70;60.00;;;;;;5041417;28;20389;-70
2023/09/27 11:02:39;;;;;;;;;;;18.80;60.10;;;;;;5038050;28;20401;-73
2023/09/27 11:05:07;;;;;;;;;;;18.80;59.80;;;;;;5045079;28;20546;-70
2023/09/27 11:07:41;;;;;;;;;;;18.80;60.00;;;;;;5046211;28;20282;-71
2023/09/27 11:10:08;;;;;;;;;;;18.80;59.60;;;;;;5042776;28;19931;-69
2023/09/27 11:12:43;;;;;;;;;;;18.80;59.60;;;;;;5073465;28;19935;-70
2023/09/27 11:15:11;;;;;;;;;;;18.80;60.20;;;;;;5069149;28;19928;-69
2023/09/27 11:17:38;;;;;;;;;;;18.90;60.10;;;;;;5068496;28;20028;-70
2023/09/27 11:20:10;;;;;;;;;;;18.90;59.80;;;;;;5065884;28;20459;-70
2023/09/27 11:22:37;;;;;;;;;;;19.00;59.90;;;;;;5073415;28;19929;-69
2023/09/27 11:25:24;;;;;;;;;;;19.00;59.60;;;;;;5072856;28;20359;-71
2023/09/27 11:27:52;;;;;;;;;;;19.00;59.80;;;;;;5070810;28;19929;-69
2023/09/27 11:30:32;;;;;;;;;;;19.00;59.50;;;;;;5071487;28;19924;-67
2023/09/27 11:33:05;;;;;;;;;;;19.10;59.90;;;;;;5072038;28;19928;-70
2023/09/27 11:35:33;;;;;;;;;;;19.10;59.70;;;;;;5072668;28;19934;-71
2023/09/27 11:38:09;;;;;;;;;;;19.10;59.80;;;;;;5066316;28;19939;-74
2023/09/27 11:40:38;;;;;;;;;;;19.20;59.90;;;;;;5070740;28;20019;-71
2023/09/27 11:43:05;;;;;;;;;;;19.20;59.60;;;;;;5068943;28;20501;-71
2023/09/27 11:45:46;;;;;;;;;;;19.20;59.30;;;;;;5066667;28;19928;-69
2023/09/27 11:48:14;;;;;;;;;;;19.20;59.10;;;;;;5069312;28;20107;-68
2023/09/27 11:50:42;;;;;;;;;;;19.30;59.70;;;;;;5071942;28;20293;-68
2023/09/27 11:53:10;;;;;;;;;;;19.40;59.70;;;;;;5070485;28;19925;-68
2023/09/27 11:55:38;;;;;;;;;;;19.40;59.60;;;;;;5068423;28;19939;-70
2023/09/27 11:58:05;;;;;;;;;;;19.40;59.50;;;;;;5069198;28;19932;-69
2023/09/27 12:00:32;;;;;;;;;;;19.50;59.60;;;;;;5070275;28;19936;-68
2023/09/27 12:03:01;;;;;;;;;;;19.50;59.60;;;;;;5071341;28;19951;-68
2023/09/27 12:05:28;;;;;;;;;;;19.60;59.60;;;;;;5073410;28;19935;-68
2023/09/27 12:07:55;;;;;;;;;;;19.60;58.70;;;;;;5074839;28;20027;-66
2023/09/27 12:10:23;;;;;;;;;;;19.60;59.50;;;;;;5069253;28;19929;-67
2023/09/27 12:12:50;;;;;;;;;;;19.60;59.40;;;;;;5097039;28;19977;-68
2023/09/27 12:15:18;;;;;;;;;;;19.60;59.30;;;;;;5089734;28;20006;-70
2023/09/27 12:17:45;;;;;;;;;;;19.60;59.40;;;;;;5088882;28;19993;-68
2023/09/27 12:20:13;;;;;;;;;;;19.60;59.30;;;;;;5086409;28;19939;-69
2023/09/27 12:22:58;;;;;;;;;;;19.60;59.40;;;;;;5083957;28;19950;-69
2023/09/27 12:25:26;;;;;;;;;;;19.60;59.60;;;;;;5073240;28;19939;-70
2023/09/27 12:27:54;;;;;;;;;;;19.70;59.70;;;;;;5066568;28;19928;-69
2023/09/27 12:30:21;;;;;;;;;;;19.70;59.50;;;;;;5073397;28;20617;-68
2023/09/27 12:32:48;;;;;;;;;;;19.70;59.60;;;;;;5075198;28;19929;-69
2023/09/27 12:35:15;;;;;;;;;;;19.70;59.70;;;;;;5077537;28;20023;-70
2023/09/27 12:37:42;;;;;;;;;;;19.80;59.50;;;;;;5075220;28;20015;-69
2023/09/27 12:40:10;;;;;;;;;;;19.80;59.70;;;;;;5075891;28;19932;-68
2023/09/27 12:42:37;;;;;;;;;;;19.80;59.70;;;;;;5079905;28;19935;-69
2023/09/27 12:45:05;;;;;;;;;;;19.80;59.70;;;;;;5079075;28;20014;-71
2023/09/27 12:47:32;;;;;;;;;;;19.80;59.90;;;;;;5074167;28;19928;-70
2023/09/27 12:50:03;;;;;;;;;;;19.90;59.80;;;;;;5079796;28;20308;-71
2023/09/27 12:52:31;;;;;;;;;;;19.90;59.80;;;;;;5072904;28;19977;-73
2023/09/27 12:54:58;;;;;;;;;;;19.90;60.00;;;;;;5076639;28;19960;-68
2023/09/27 12:57:25;;;;;;;;;;;19.90;60.00;;;;;;5077224;28;19981;-69
2023/09/27 12:59:52;;;;;;;;;;;19.90;60.00;;;;;;5077906;28;19939;-69
2023/09/27 13:02:19;;;;;;;;;;;20.00;59.90;;;;;;5077028;28;19933;-69
2023/09/27 13:04:46;;;;;;;;;;;20.00;60.10;;;;;;5079929;28;20384;-70
2023/09/27 13:07:13;;;;;;;;;;;20.00;59.90;;;;;;5074432;28;19928;-70
2023/09/27 13:09:42;;;;;;;;;;;20.00;59.80;;;;;;5072939;28;19925;-70
2023/09/27 13:12:09;;;;;;;;;;;20.00;59.90;;;;;;5077370;28;19982;-71
2023/09/27 13:14:37;;;;;;;;;;;20.10;59.60;;;;;;5075513;28;19925;-69
2023/09/27 13:17:04;;;;;;;;;;;20.10;59.80;;;;;;5077297;28;20026;-67
2023/09/27 13:19:31;;;;;;;;;;;20.10;59.50;;;;;;5075384;28;20304;-68
2023/09/27 13:21:59;;;;;;;;;;;20.10;59.60;;;;;;5076863;28;19927;-70
2023/09/27 13:24:26;;;;;;;;;;;20.10;59.30;;;;;;5075253;28;20374;-69
2023/09/27 13:26:54;;;;;;;;;;;20.10;59.30;;;;;;5071114;28;19924;-69
2023/09/27 13:29:21;;;;;;;;;;;20.10;59.10;;;;;;5075868;28;19932;-68
2023/09/27 13:31:50;;;;;;;;;;;20.10;59.40;;;;;;5073195;28;19971;-69
2023/09/27 13:34:17;;;;;;;;;;;20.10;59.30;;;;;;5073351;28;20388;-68
2023/09/27 13:36:44;;;;;;;;;;;20.10;60.00;;;;;;5076510;28;19936;-68
2023/09/27 13:39:16;;;;;;;;;;;20.10;59.00;;;;;;5079411;28;19924;-68
2023/09/27 13:41:45;;;;;;;;;;;20.10;59.60;;;;;;5077730;28;19935;-69
2023/09/27 13:44:12;;;;;;;;;;;20.10;59.40;;;;;;5081786;28;19982;-69
2023/09/27 13:46:40;;;;;;;;;;;20.20;59.20;;;;;;5072886;28;20420;-69
2023/09/27 13:49:08;;;;;;;;;;;20.10;59.20;;;;;;5075205;28;19929;-69
2023/09/27 13:51:36;;;;;;;;;;;20.20;59.30;;;;;;5077235;28;20026;-72
2023/09/27 13:54:05;;;;;;;;;;;20.20;59.20;;;;;;5080947;28;19928;-70
2023/09/27 13:56:32;;;;;;;;;;;20.20;59.20;;;;;;5078430;28;19986;-68
2023/09/27 13:58:59;;;;;;;;;;;20.20;59.50;;;;;;5079553;28;19929;-69
2023/09/27 14:01:27;;;;;;;;;;;20.20;59.60;;;;;;5074799;28;19932;-69
2023/09/27 14:03:54;;;;;;;;;;;20.20;59.90;;;;;;5079517;28;20392;-68
2023/09/27 14:06:21;;;;;;;;;;;20.20;63.00;;;;;;5074625;28;19925;-70
2023/09/27 14:08:48;;;;;;;;;;;20.40;70.40;;;;;;5078718;28;19931;-69
2023/09/27 14:11:16;;;;;;;;;;;20.70;73.60;;;;;;5071625;28;19936;-68
2023/09/27 14:13:45;;;;;;;;;;;20.90;74.90;;;;;;5073264;28;20019;-69
2023/09/27 14:16:12;;;;;;;;;;;21.20;75.50;;;;;;5077052;28;19928;-71
2023/09/27 14:18:40;;;;;;;;;;;21.50;75.30;;;;;;5080874;28;20389;-68
2023/09/27 14:21:07;;;;;;;;;;;21.70;75.50;;;;;;5076667;28;20428;-68
2023/09/27 14:23:35;;;;;;;;;;;21.90;75.50;;;;;;5076934;28;19928;-67
2023/09/27 14:26:03;;;;;;;;;;;22.10;75.60;;;;;;5075193;28;19939;-69